sensor_id;sensor_type;location;lat;lon;timestamp;temperature;humidity
16283;DHT22;8249;48.708;9.030;2023-11-21T00:01:05;7.70;99.90
16283;DHT22;8249;48.708;9.030;2023-11-21T00:03:34;7.70;99.90
16283;DHT22;8249;48.708;9.030;2023-11-21T00:06:01;7.70;99.90
16283;DHT22;8249;48.708;9.030;2023-11-21T00:08:28;7.70;99.90
16283;DHT22;8249;48.708;9.030;2023-11-21T00:10:55;7.70;99.90
16283;DHT22;8249;48.708;9.030;2023-11-21T00:13:22;7.70;99.90
16283;DHT22;8249;48.708;9.030;2023-11-21T00:15:49;7.70;99.90
16283;DHT22;8249;48.708;9.030;2023-11-21T00:18:17;7.60;99.90
16283;DHT22;8249;48.708;9.030;2023-11-21T00:20:44;7.80;99.90
16283;DHT22;8249;48.708;9.030;2023-11-21T00:23:12;7.80;99.90
16283;DHT22;8249;48.708;9.030;2023-11-21T00:25:38;7.80;99.90
16283;DHT22;8249;48.708;9.030;2023-11-21T00:28:05;7.80;99.90
16283;DHT22;8249;48.708;9.030;2023-11-21T00:30:32;7.70;99.90
16283;DHT22;8249;48.708;9.030;2023-11-21T00:32:59;7.80;99.90
16283;DHT22;8249;48.708;9.030;2023-11-21T00:35:28;7.80;99.90
16283;DHT22;8249;48.708;9.030;2023-11-21T00:37:54;8.00;99.90
16283;DHT22;8249;48.708;9.030;2023-11-21T00:40:22;7.80;99.90
16283;DHT22;8249;48.708;9.030;2023-11-21T00:42:48;7.80;99.90
16283;DHT22;8249;48.708;9.030;2023-11-21T00:45:15;7.80;99.90
16283;DHT22;8249;48.708;9.030;2023-11-21T00:47:42;7.80;99.90
16283;DHT22;8249;48.708;9.030;2023-11-21T00:50:09;7.80;99.90
16283;DHT22;8249;48.708;9.030;2023-11-21T00:52:38;7.80;99.90
16283;DHT22;8249;48.708;9.030;2023-11-21T00:55:05;7.80;99.90
16283;DHT22;8249;48.708;9.030;2023-11-21T00:57:33;7.80;99.90
16283;DHT22;8249;48.708;9.030;2023-11-21T01:00:00;7.80;99.90
16283;DHT22;8249;48.708;9.030;2023-11-21T01:02:28;7.80;99.90
16283;DHT22;8249;48.708;9.030;2023-11-21T01:04:55;7.90;99.90
16283;DHT22;8249;48.708;9.030;2023-11-21T01:07:21;7.80;99.90
16283;DHT22;8249;48.708;9.030;2023-11-21T01:09:50;7.80;99.90
16283;DHT22;8249;48.708;9.030;2023-11-21T01:12:17;7.80;99.90
16283;DHT22;8249;48.708;9.030;2023-11-21T01:14:44;7.80;99.90
16283;DHT22;8249;48.708;9.030;2023-11-21T01:17:12;7.90;99.90
16283;DHT22;8249;48.708;9.030;2023-11-21T01:19:38;7.80;99.90
16283;DHT22;8249;48.708;9.030;2023-11-21T01:22:05;7.90;99.90
16283;DHT22;8249;48.708;9.030;2023-11-21T01:24:32;7.90;99.90
16283;DHT22;8249;48.708;9.030;2023-11-21T01:27:00;7.90;99.90
16283;DHT22;8249;48.708;9.030;2023-11-21T01:29:27;7.90;99.90
16283;DHT22;8249;48.708;9.030;2023-11-21T01:31:55;7.90;99.90
16283;DHT22;8249;48.708;9.030;2023-11-21T01:34:23;7.90;99.90
16283;DHT22;8249;48.708;9.030;2023-11-21T01:36:50;7.90;99.90
16283;DHT22;8249;48.708;9.030;2023-11-21T01:39:17;7.90;99.90
16283;DHT22;8249;48.708;9.030;2023-11-21T01:41:49;7.90;99.90
16283;DHT22;8249;48.708;9.030;2023-11-21T01:44:19;7.90;99.90
16283;DHT22;8249;48.708;9.030;2023-11-21T01:46:46;8.00;99.90
16283;DHT22;8249;48.708;9.030;2023-11-21T01:49:14;7.90;99.90
16283;DHT22;8249;48.708;9.030;2023-11-21T01:51:42;8.00;99.90
16283;DHT22;8249;48.708;9.030;2023-11-21T01:54:10;8.00;99.90
16283;DHT22;8249;48.708;9.030;2023-11-21T01:56:37;7.90;99.90
16283;DHT22;8249;48.708;9.030;2023-11-21T01:59:05;7.90;99.90
16283;DHT22;8249;48.708;9.030;2023-11-21T02:01:34;7.90;99.90
16283;DHT22;8249;48.708;9.030;2023-11-21T02:04:01;7.80;99.90
16283;DHT22;8249;48.708;9.030;2023-11-21T02:06:29;7.80;99.90
16283;DHT22;8249;48.708;9.030;2023-11-21T02:08:56;7.80;99.90
16283;DHT22;8249;48.708;9.030;2023-11-21T02:11:26;7.90;99.90
16283;DHT22;8249;48.708;9.030;2023-11-21T02:13:53;7.80;99.90
16283;DHT22;8249;48.708;9.030;2023-11-21T02:16:20;7.80;99.90
16283;DHT22;8249;48.708;9.030;2023-11-21T02:18:49;7.80;99.90
16283;DHT22;8249;48.708;9.030;2023-11-21T02:21:17;7.90;99.90
16283;DHT22;8249;48.708;9.030;2023-11-21T02:23:46;7.80;99.90
16283;DHT22;8249;48.708;9.030;2023-11-21T02:26:13;7.80;99.90
16283;DHT22;8249;48.708;9.030;2023-11-21T02:28:40;7.90;99.90
16283;DHT22;8249;48.708;9.030;2023-11-21T02:31:08;7.80;99.90
16283;DHT22;8249;48.708;9.030;2023-11-21T02:33:35;7.80;99.90
16283;DHT22;8249;48.708;9.030;2023-11-21T02:36:02;7.80;99.90
16283;DHT22;8249;48.708;9.030;2023-11-21T02:38:29;7.80;99.90
16283;DHT22;8249;48.708;9.030;2023-11-21T02:40:57;7.80;99.90
16283;DHT22;8249;48.708;9.030;2023-11-21T02:43:24;7.80;99.90
16283;DHT22;8249;48.708;9.030;2023-11-21T02:45:51;7.80;99.90
16283;DHT22;8249;48.708;9.030;2023-11-21T02:48:18;7.80;99.90
16283;DHT22;8249;48.708;9.030;2023-11-21T02:50:45;7.80;99.90
16283;DHT22;8249;48.708;9.030;2023-11-21T02:53:13;7.80;99.90
16283;DHT22;8249;48.708;9.030;2023-11-21T02:55:41;7.70;99.90
16283;DHT22;8249;48.708;9.030;2023-11-21T02:58:09;7.70;99.90
16283;DHT22;8249;48.708;9.030;2023-11-21T03:00:36;7.70;99.90
16283;DHT22;8249;48.708;9.030;2023-11-21T03:03:05;7.60;99.90
16283;DHT22;8249;48.708;9.030;2023-11-21T03:05:32;7.60;99.90
16283;DHT22;8249;48.708;9.030;2023-11-21T03:08:01;7.50;99.90
16283;DHT22;8249;48.708;9.030;2023-11-21T03:10:27;7.50;99.90
16283;DHT22;8249;48.708;9.030;2023-11-21T03:12:55;7.40;99.90
16283;DHT22;8249;48.708;9.030;2023-11-21T03:15:24;7.40;99.90
16283;DHT22;8249;48.708;9.030;2023-11-21T03:17:51;7.40;99.90
16283;DHT22;8249;48.708;9.030;2023-11-21T03:20:18;7.40;99.90
16283;DHT22;8249;48.708;9.030;2023-11-21T03:22:45;7.40;99.90
16283;DHT22;8249;48.708;9.030;2023-11-21T03:25:11;7.40;99.90
16283;DHT22;8249;48.708;9.030;2023-11-21T03:27:38;7.40;99.90
16283;DHT22;8249;48.708;9.030;2023-11-21T03:30:08;7.50;99.90
16283;DHT22;8249;48.708;9.030;2023-11-21T03:32:37;7.40;99.90
16283;DHT22;8249;48.708;9.030;2023-11-21T03:35:04;7.40;99.90
16283;DHT22;8249;48.708;9.030;2023-11-21T03:37:31;7.50;99.90
16283;DHT22;8249;48.708;9.030;2023-11-21T03:39:58;7.60;99.90
16283;DHT22;8249;48.708;9.030;2023-11-21T03:42:25;7.50;99.90
16283;DHT22;8249;48.708;9.030;2023-11-21T03:44:52;7.60;99.90
16283;DHT22;8249;48.708;9.030;2023-11-21T03:47:20;7.60;99.90
16283;DHT22;8249;48.708;9.030;2023-11-21T03:49:48;7.60;99.90
16283;DHT22;8249;48.708;9.030;2023-11-21T03:52:17;7.60;99.90
16283;DHT22;8249;48.708;9.030;2023-11-21T03:54:44;7.60;99.90
16283;DHT22;8249;48.708;9.030;2023-11-21T03:57:11;7.70;99.90
16283;DHT22;8249;48.708;9.030;2023-11-21T03:59:40;7.70;99.90
16283;DHT22;8249;48.708;9.030;2023-11-21T04:02:07;7.70;99.90
16283;DHT22;8249;48.708;9.030;2023-11-21T04:04:34;7.60;99.90
16283;DHT22;8249;48.708;9.030;2023-11-21T04:07:02;7.60;99.90
16283;DHT22;8249;48.708;9.030;2023-11-21T04:09:30;7.70;99.90
16283;DHT22;8249;48.708;9.030;2023-11-21T04:11:57;7.60;99.90
16283;DHT22;8249;48.708;9.030;2023-11-21T04:14:24;7.60;99.90
16283;DHT22;8249;48.708;9.030;2023-11-21T04:16:51;7.60;99.90
16283;DHT22;8249;48.708;9.030;2023-11-21T04:19:19;7.60;99.90
16283;DHT22;8249;48.708;9.030;2023-11-21T04:21:46;7.60;99.90
16283;DHT22;8249;48.708;9.030;2023-11-21T04:24:14;7.60;99.90
16283;DHT22;8249;48.708;9.030;2023-11-21T04:26:41;7.60;99.90
16283;DHT22;8249;48.708;9.030;2023-11-21T04:29:08;7.70;99.90
16283;DHT22;8249;48.708;9.030;2023-11-21T04:31:35;7.70;99.90
16283;DHT22;8249;48.708;9.030;2023-11-21T04:34:02;7.60;99.90
16283;DHT22;8249;48.708;9.030;2023-11-21T04:36:29;7.60;99.90
16283;DHT22;8249;48.708;9.030;2023-11-21T04:38:57;7.60;99.90
16283;DHT22;8249;48.708;9.030;2023-11-21T04:41:25;7.60;99.90
16283;DHT22;8249;48.708;9.030;2023-11-21T04:43:52;7.60;99.90
16283;DHT22;8249;48.708;9.030;2023-11-21T04:46:19;7.60;99.90
16283;DHT22;8249;48.708;9.030;2023-11-21T04:48:47;7.70;99.90
16283;DHT22;8249;48.708;9.030;2023-11-21T04:51:14;7.70;99.90
16283;DHT22;8249;48.708;9.030;2023-11-21T04:53:41;7.60;99.90
16283;DHT22;8249;48.708;9.030;2023-11-21T04:56:08;7.60;99.90
16283;DHT22;8249;48.708;9.030;2023-11-21T04:58:36;7.60;99.90
16283;DHT22;8249;48.708;9.030;2023-11-21T05:01:04;7.60;99.90
16283;DHT22;8249;48.708;9.030;2023-11-21T05:03:31;7.60;99.90
16283;DHT22;8249;48.708;9.030;2023-11-21T05:05:57;7.60;99.90
16283;DHT22;8249;48.708;9.030;2023-11-21T05:08:26;7.60;99.90
16283;DHT22;8249;48.708;9.030;2023-11-21T05:10:53;7.60;99.90
16283;DHT22;8249;48.708;9.030;2023-11-21T05:13:20;7.60;99.90
16283;DHT22;8249;48.708;9.030;2023-11-21T05:15:49;7.60;99.90
16283;DHT22;8249;48.708;9.030;2023-11-21T05:18:16;7.70;99.90
16283;DHT22;8249;48.708;9.030;2023-11-21T05:20:43;7.50;99.90
16283;DHT22;8249;48.708;9.030;2023-11-21T05:23:10;7.50;99.90
16283;DHT22;8249;48.708;9.030;2023-11-21T05:25:37;7.50;99.90
16283;DHT22;8249;48.708;9.030;2023-11-21T05:28:04;7.50;99.90
16283;DHT22;8249;48.708;9.030;2023-11-21T05:30:32;7.40;99.90
16283;DHT22;8249;48.708;9.030;2023-11-21T05:33:00;7.40;99.90
16283;DHT22;8249;48.708;9.030;2023-11-21T05:35:27;7.40;99.90
16283;DHT22;8249;48.708;9.030;2023-11-21T05:37:54;7.30;99.90
16283;DHT22;8249;48.708;9.030;2023-11-21T05:40:21;7.30;99.90
16283;DHT22;8249;48.708;9.030;2023-11-21T05:42:50;7.30;99.90
16283;DHT22;8249;48.708;9.030;2023-11-21T05:45:17;7.30;99.90
16283;DHT22;8249;48.708;9.030;2023-11-21T05:47:45;7.30;99.90
16283;DHT22;8249;48.708;9.030;2023-11-21T05:50:15;7.40;99.90
16283;DHT22;8249;48.708;9.030;2023-11-21T05:52:44;7.40;99.90
16283;DHT22;8249;48.708;9.030;2023-11-21T05:55:11;7.40;99.90
16283;DHT22;8249;48.708;9.030;2023-11-21T05:57:39;7.40;99.90
16283;DHT22;8249;48.708;9.030;2023-11-21T06:00:08;7.40;99.90
16283;DHT22;8249;48.708;9.030;2023-11-21T06:02:39;7.40;99.90
16283;DHT22;8249;48.708;9.030;2023-11-21T06:05:07;7.40;99.90
16283;DHT22;8249;48.708;9.030;2023-11-21T06:07:36;7.40;99.90
16283;DHT22;8249;48.708;9.030;2023-11-21T06:10:04;7.40;99.90
16283;DHT22;8249;48.708;9.030;2023-11-21T06:12:33;7.30;99.90
16283;DHT22;8249;48.708;9.030;2023-11-21T06:15:01;7.40;99.90
16283;DHT22;8249;48.708;9.030;2023-11-21T06:17:30;7.20;99.90
16283;DHT22;8249;48.708;9.030;2023-11-21T06:19:57;7.20;99.90
16283;DHT22;8249;48.708;9.030;2023-11-21T06:22:26;7.20;99.90
16283;DHT22;8249;48.708;9.030;2023-11-21T06:24:54;7.20;99.90
16283;DHT22;8249;48.708;9.030;2023-11-21T06:27:21;7.20;99.90
16283;DHT22;8249;48.708;9.030;2023-11-21T06:29:50;7.20;99.90
16283;DHT22;8249;48.708;9.030;2023-11-21T06:32:17;7.20;99.90
16283;DHT22;8249;48.708;9.030;2023-11-21T06:34:46;7.20;99.90
16283;DHT22;8249;48.708;9.030;2023-11-21T06:37:12;7.20;99.90
16283;DHT22;8249;48.708;9.030;2023-11-21T06:39:39;7.30;99.90
16283;DHT22;8249;48.708;9.030;2023-11-21T06:42:08;7.30;99.90
16283;DHT22;8249;48.708;9.030;2023-11-21T06:44:36;7.30;99.90
16283;DHT22;8249;48.708;9.030;2023-11-21T06:47:15;7.30;99.90
16283;DHT22;8249;48.708;9.030;2023-11-21T06:49:43;7.40;99.90
16283;DHT22;8249;48.708;9.030;2023-11-21T06:52:10;7.30;99.90
16283;DHT22;8249;48.708;9.030;2023-11-21T06:54:37;7.50;99.90
16283;DHT22;8249;48.708;9.030;2023-11-21T06:57:04;7.40;99.90
16283;DHT22;8249;48.708;9.030;2023-11-21T06:59:32;7.30;99.90
16283;DHT22;8249;48.708;9.030;2023-11-21T07:01:58;7.40;99.90
16283;DHT22;8249;48.708;9.030;2023-11-21T07:04:25;7.40;99.90
16283;DHT22;8249;48.708;9.030;2023-11-21T07:06:53;7.40;99.90
16283;DHT22;8249;48.708;9.030;2023-11-21T07:09:20;7.50;99.90
16283;DHT22;8249;48.708;9.030;2023-11-21T07:11:47;7.50;99.90
16283;DHT22;8249;48.708;9.030;2023-11-21T07:14:14;7.50;99.90
16283;DHT22;8249;48.708;9.030;2023-11-21T07:16:43;7.60;99.90
16283;DHT22;8249;48.708;9.030;2023-11-21T07:19:10;7.50;99.90
16283;DHT22;8249;48.708;9.030;2023-11-21T07:21:38;7.60;99.90
16283;DHT22;8249;48.708;9.030;2023-11-21T07:24:07;7.60;99.90
16283;DHT22;8249;48.708;9.030;2023-11-21T07:26:34;7.70;99.90
16283;DHT22;8249;48.708;9.030;2023-11-21T07:29:02;7.70;99.90
16283;DHT22;8249;48.708;9.030;2023-11-21T07:31:29;7.70;99.90
16283;DHT22;8249;48.708;9.030;2023-11-21T07:33:58;7.80;99.90
16283;DHT22;8249;48.708;9.030;2023-11-21T07:36:25;7.70;99.90
16283;DHT22;8249;48.708;9.030;2023-11-21T07:38:52;7.80;99.90
16283;DHT22;8249;48.708;9.030;2023-11-21T07:41:19;7.80;99.90
16283;DHT22;8249;48.708;9.030;2023-11-21T07:43:46;7.90;99.90
16283;DHT22;8249;48.708;9.030;2023-11-21T07:46:13;7.90;99.90
16283;DHT22;8249;48.708;9.030;2023-11-21T07:48:41;7.80;99.90
16283;DHT22;8249;48.708;9.030;2023-11-21T07:51:10;8.10;99.90
16283;DHT22;8249;48.708;9.030;2023-11-21T07:53:38;8.00;99.90
16283;DHT22;8249;48.708;9.030;2023-11-21T07:56:08;8.10;99.90
16283;DHT22;8249;48.708;9.030;2023-11-21T07:58:36;8.10;99.90
16283;DHT22;8249;48.708;9.030;2023-11-21T08:01:03;8.10;99.90
16283;DHT22;8249;48.708;9.030;2023-11-21T08:03:30;8.10;99.90
16283;DHT22;8249;48.708;9.030;2023-11-21T08:05:58;8.10;99.90
16283;DHT22;8249;48.708;9.030;2023-11-21T08:08:26;8.20;99.90
16283;DHT22;8249;48.708;9.030;2023-11-21T08:10:53;8.10;99.90
16283;DHT22;8249;48.708;9.030;2023-11-21T08:13:22;8.10;99.90
16283;DHT22;8249;48.708;9.030;2023-11-21T08:15:50;8.10;99.90
16283;DHT22;8249;48.708;9.030;2023-11-21T08:18:16;8.20;99.90
16283;DHT22;8249;48.708;9.030;2023-11-21T08:20:44;8.20;99.90
16283;DHT22;8249;48.708;9.030;2023-11-21T08:23:14;8.20;99.90
16283;DHT22;8249;48.708;9.030;2023-11-21T08:25:43;8.20;99.90
16283;DHT22;8249;48.708;9.030;2023-11-21T08:28:10;8.30;99.90
16283;DHT22;8249;48.708;9.030;2023-11-21T08:30:37;8.40;99.90
16283;DHT22;8249;48.708;9.030;2023-11-21T08:33:05;8.40;99.90
16283;DHT22;8249;48.708;9.030;2023-11-21T08:35:32;8.70;99.90
16283;DHT22;8249;48.708;9.030;2023-11-21T08:37:58;8.70;99.90
16283;DHT22;8249;48.708;9.030;2023-11-21T08:40:25;8.90;99.90
16283;DHT22;8249;48.708;9.030;2023-11-21T08:42:54;8.90;99.90
16283;DHT22;8249;48.708;9.030;2023-11-21T08:45:21;9.00;99.90
16283;DHT22;8249;48.708;9.030;2023-11-21T08:47:48;9.00;99.90
16283;DHT22;8249;48.708;9.030;2023-11-21T08:50:16;9.00;99.90
16283;DHT22;8249;48.708;9.030;2023-11-21T08:52:44;9.10;99.90
16283;DHT22;8249;48.708;9.030;2023-11-21T08:55:11;9.00;99.90
16283;DHT22;8249;48.708;9.030;2023-11-21T08:57:39;9.00;99.90
16283;DHT22;8249;48.708;9.030;2023-11-21T09:00:09;9.00;99.90
16283;DHT22;8249;48.708;9.030;2023-11-21T09:02:37;9.00;99.90
16283;DHT22;8249;48.708;9.030;2023-11-21T09:05:05;9.00;99.90
16283;DHT22;8249;48.708;9.030;2023-11-21T09:07:32;9.00;99.90
16283;DHT22;8249;48.708;9.030;2023-11-21T09:09:59;8.90;99.90
16283;DHT22;8249;48.708;9.030;2023-11-21T09:12:26;8.90;99.90
16283;DHT22;8249;48.708;9.030;2023-11-21T09:14:53;8.90;99.90
16283;DHT22;8249;48.708;9.030;2023-11-21T09:17:21;8.90;99.90
16283;DHT22;8249;48.708;9.030;2023-11-21T09:19:48;8.90;99.90
16283;DHT22;8249;48.708;9.030;2023-11-21T09:22:17;8.80;99.90
16283;DHT22;8249;48.708;9.030;2023-11-21T09:24:44;8.80;99.90
16283;DHT22;8249;48.708;9.030;2023-11-21T09:27:11;8.80;99.90
16283;DHT22;8249;48.708;9.030;2023-11-21T09:29:37;8.80;99.90
16283;DHT22;8249;48.708;9.030;2023-11-21T09:32:05;8.80;99.90
16283;DHT22;8249;48.708;9.030;2023-11-21T09:34:35;8.90;99.90
16283;DHT22;8249;48.708;9.030;2023-11-21T09:37:04;9.00;99.90
16283;DHT22;8249;48.708;9.030;2023-11-21T09:39:31;9.00;99.90
16283;DHT22;8249;48.708;9.030;2023-11-21T09:42:04;9.20;99.90
16283;DHT22;8249;48.708;9.030;2023-11-21T09:44:35;9.30;99.90
16283;DHT22;8249;48.708;9.030;2023-11-21T09:47:03;9.30;99.90
16283;DHT22;8249;48.708;9.030;2023-11-21T09:49:36;9.30;99.90
16283;DHT22;8249;48.708;9.030;2023-11-21T09:52:04;9.20;99.90
16283;DHT22;8249;48.708;9.030;2023-11-21T09:54:34;9.10;99.90
16283;DHT22;8249;48.708;9.030;2023-11-21T09:57:02;9.00;99.90
16283;DHT22;8249;48.708;9.030;2023-11-21T09:59:31;8.90;99.90
16283;DHT22;8249;48.708;9.030;2023-11-21T10:01:58;8.80;99.90
16283;DHT22;8249;48.708;9.030;2023-11-21T10:04:26;8.80;99.90
16283;DHT22;8249;48.708;9.030;2023-11-21T10:06:54;8.70;99.90
16283;DHT22;8249;48.708;9.030;2023-11-21T10:09:23;8.70;99.90
16283;DHT22;8249;48.708;9.030;2023-11-21T10:11:52;8.60;99.90
16283;DHT22;8249;48.708;9.030;2023-11-21T10:14:22;8.60;99.90
16283;DHT22;8249;48.708;9.030;2023-11-21T10:16:52;8.50;99.90
16283;DHT22;8249;48.708;9.030;2023-11-21T10:19:20;8.50;99.90
16283;DHT22;8249;48.708;9.030;2023-11-21T10:21:49;8.50;99.90
16283;DHT22;8249;48.708;9.030;2023-11-21T10:24:18;8.50;99.90
16283;DHT22;8249;48.708;9.030;2023-11-21T10:26:46;8.60;99.90
16283;DHT22;8249;48.708;9.030;2023-11-21T10:29:14;8.60;99.90
16283;DHT22;8249;48.708;9.030;2023-11-21T10:31:42;8.60;99.90
16283;DHT22;8249;48.708;9.030;2023-11-21T10:34:14;8.60;99.90
16283;DHT22;8249;48.708;9.030;2023-11-21T10:36:41;8.60;99.90
16283;DHT22;8249;48.708;9.030;2023-11-21T10:39:08;8.60;99.90
16283;DHT22;8249;48.708;9.030;2023-11-21T10:41:37;8.60;99.90
16283;DHT22;8249;48.708;9.030;2023-11-21T10:44:05;8.60;99.90
16283;DHT22;8249;48.708;9.030;2023-11-21T10:46:35;8.60;99.90
16283;DHT22;8249;48.708;9.030;2023-11-21T10:49:01;8.60;99.90
16283;DHT22;8249;48.708;9.030;2023-11-21T10:51:28;8.80;99.90
16283;DHT22;8249;48.708;9.030;2023-11-21T10:53:55;8.70;99.90
16283;DHT22;8249;48.708;9.030;2023-11-21T10:56:23;8.80;99.90
16283;DHT22;8249;48.708;9.030;2023-11-21T10:58:53;8.80;99.90
16283;DHT22;8249;48.708;9.030;2023-11-21T11:01:21;8.80;99.90
16283;DHT22;8249;48.708;9.030;2023-11-21T11:03:51;8.80;99.90
16283;DHT22;8249;48.708;9.030;2023-11-21T11:06:21;8.70;99.90
16283;DHT22;8249;48.708;9.030;2023-11-21T11:08:48;8.70;99.90
16283;DHT22;8249;48.708;9.030;2023-11-21T11:11:15;8.70;99.90
16283;DHT22;8249;48.708;9.030;2023-11-21T11:13:44;8.70;99.90
16283;DHT22;8249;48.708;9.030;2023-11-21T11:16:13;8.80;99.90
16283;DHT22;8249;48.708;9.030;2023-11-21T11:18:43;8.90;99.90
16283;DHT22;8249;48.708;9.030;2023-11-21T11:21:20;9.00;99.90
16283;DHT22;8249;48.708;9.030;2023-11-21T11:24:06;9.00;99.90
16283;DHT22;8249;48.708;9.030;2023-11-21T11:26:42;9.10;99.90
16283;DHT22;8249;48.708;9.030;2023-11-21T11:29:17;9.20;99.90
16283;DHT22;8249;48.708;9.030;2023-11-21T11:31:55;9.30;99.90
16283;DHT22;8249;48.708;9.030;2023-11-21T11:34:29;9.50;99.90
16283;DHT22;8249;48.708;9.030;2023-11-21T11:37:00;9.40;99.90
16283;DHT22;8249;48.708;9.030;2023-11-21T11:39:30;9.40;99.90
16283;DHT22;8249;48.708;9.030;2023-11-21T11:41:57;9.30;99.90
16283;DHT22;8249;48.708;9.030;2023-11-21T11:44:47;9.40;99.90
16283;DHT22;8249;48.708;9.030;2023-11-21T11:47:21;9.50;99.90
16283;DHT22;8249;48.708;9.030;2023-11-21T11:50:05;9.60;99.90
16283;DHT22;8249;48.708;9.030;2023-11-21T11:52:40;9.70;99.90
16283;DHT22;8249;48.708;9.030;2023-11-21T11:55:08;9.70;99.90
16283;DHT22;8249;48.708;9.030;2023-11-21T11:57:37;9.80;99.90
16283;DHT22;8249;48.708;9.030;2023-11-21T12:00:13;9.80;99.90
16283;DHT22;8249;48.708;9.030;2023-11-21T12:02:45;9.80;99.90
16283;DHT22;8249;48.708;9.030;2023-11-21T12:05:14;9.70;99.90
16283;DHT22;8249;48.708;9.030;2023-11-21T12:07:45;9.70;99.90
16283;DHT22;8249;48.708;9.030;2023-11-21T12:10:14;9.60;99.90
16283;DHT22;8249;48.708;9.030;2023-11-21T12:12:47;9.60;99.90
16283;DHT22;8249;48.708;9.030;2023-11-21T12:15:16;9.60;99.90
16283;DHT22;8249;48.708;9.030;2023-11-21T12:17:44;9.50;99.90
16283;DHT22;8249;48.708;9.030;2023-11-21T12:20:12;9.50;99.90
16283;DHT22;8249;48.708;9.030;2023-11-21T12:22:44;9.40;99.90
16283;DHT22;8249;48.708;9.030;2023-11-21T12:25:13;9.50;99.90
16283;DHT22;8249;48.708;9.030;2023-11-21T12:27:46;9.50;99.90
16283;DHT22;8249;48.708;9.030;2023-11-21T12:30:15;9.50;99.90
16283;DHT22;8249;48.708;9.030;2023-11-21T12:32:45;9.50;99.90
16283;DHT22;8249;48.708;9.030;2023-11-21T12:35:12;9.50;99.90
16283;DHT22;8249;48.708;9.030;2023-11-21T12:37:41;9.60;99.90
16283;DHT22;8249;48.708;9.030;2023-11-21T12:40:10;9.60;99.90
16283;DHT22;8249;48.708;9.030;2023-11-21T12:42:39;9.70;99.90
16283;DHT22;8249;48.708;9.030;2023-11-21T12:45:19;10.00;99.90
16283;DHT22;8249;48.708;9.030;2023-11-21T12:47:48;10.20;99.90
16283;DHT22;8249;48.708;9.030;2023-11-21T12:50:15;10.50;99.90
16283;DHT22;8249;48.708;9.030;2023-11-21T12:52:47;10.80;99.90
16283;DHT22;8249;48.708;9.030;2023-11-21T12:55:16;11.00;99.90
16283;DHT22;8249;48.708;9.030;2023-11-21T12:57:44;11.40;99.90
16283;DHT22;8249;48.708;9.030;2023-11-21T13:00:13;11.70;99.90
16283;DHT22;8249;48.708;9.030;2023-11-21T13:02:55;11.80;99.90
16283;DHT22;8249;48.708;9.030;2023-11-21T13:05:25;11.90;99.90
16283;DHT22;8249;48.708;9.030;2023-11-21T13:07:53;11.90;99.90
16283;DHT22;8249;48.708;9.030;2023-11-21T13:10:23;11.90;99.90
16283;DHT22;8249;48.708;9.030;2023-11-21T13:12:52;11.80;99.90
16283;DHT22;8249;48.708;9.030;2023-11-21T13:15:20;11.80;99.90
16283;DHT22;8249;48.708;9.030;2023-11-21T13:17:47;11.70;99.90
16283;DHT22;8249;48.708;9.030;2023-11-21T13:20:17;11.60;99.90
16283;DHT22;8249;48.708;9.030;2023-11-21T13:22:49;11.70;99.90
16283;DHT22;8249;48.708;9.030;2023-11-21T13:25:20;11.50;99.90
16283;DHT22;8249;48.708;9.030;2023-11-21T13:27:47;11.40;99.90
16283;DHT22;8249;48.708;9.030;2023-11-21T13:30:14;11.20;99.90
16283;DHT22;8249;48.708;9.030;2023-11-21T13:32:43;10.90;99.90
16283;DHT22;8249;48.708;9.030;2023-11-21T13:35:12;10.70;99.90
16283;DHT22;8249;48.708;9.030;2023-11-21T13:37:51;10.50;99.90
16283;DHT22;8249;48.708;9.030;2023-11-21T13:40:22;10.40;99.90
16283;DHT22;8249;48.708;9.030;2023-11-21T13:42:52;10.10;99.90
16283;DHT22;8249;48.708;9.030;2023-11-21T13:45:21;9.90;99.90
16283;DHT22;8249;48.708;9.030;2023-11-21T13:47:50;9.80;99.90
16283;DHT22;8249;48.708;9.030;2023-11-21T13:50:23;9.70;99.90
16283;DHT22;8249;48.708;9.030;2023-11-21T13:52:56;9.60;99.90
16283;DHT22;8249;48.708;9.030;2023-11-21T13:55:23;9.60;99.90
16283;DHT22;8249;48.708;9.030;2023-11-21T13:57:51;9.50;99.90
16283;DHT22;8249;48.708;9.030;2023-11-21T14:00:18;9.60;99.90
16283;DHT22;8249;48.708;9.030;2023-11-21T14:03:10;9.50;99.90
16283;DHT22;8249;48.708;9.030;2023-11-21T14:05:44;9.60;99.90
16283;DHT22;8249;48.708;9.030;2023-11-21T14:08:14;9.60;99.90
16283;DHT22;8249;48.708;9.030;2023-11-21T14:10:45;9.60;99.90
16283;DHT22;8249;48.708;9.030;2023-11-21T14:13:16;9.50;99.90
16283;DHT22;8249;48.708;9.030;2023-11-21T14:15:43;9.40;99.90
16283;DHT22;8249;48.708;9.030;2023-11-21T14:18:11;9.30;99.90
16283;DHT22;8249;48.708;9.030;2023-11-21T14:20:42;9.30;99.90
16283;DHT22;8249;48.708;9.030;2023-11-21T14:23:10;9.30;99.90
16283;DHT22;8249;48.708;9.030;2023-11-21T14:25:38;9.30;99.90
16283;DHT22;8249;48.708;9.030;2023-11-21T14:28:07;9.30;99.90
16283;DHT22;8249;48.708;9.030;2023-11-21T14:30:37;9.30;99.90
16283;DHT22;8249;48.708;9.030;2023-11-21T14:33:05;9.40;99.90
16283;DHT22;8249;48.708;9.030;2023-11-21T14:35:34;9.40;99.90
16283;DHT22;8249;48.708;9.030;2023-11-21T14:38:00;9.40;99.90
16283;DHT22;8249;48.708;9.030;2023-11-21T14:40:30;9.40;99.90
16283;DHT22;8249;48.708;9.030;2023-11-21T14:43:00;9.40;99.90
16283;DHT22;8249;48.708;9.030;2023-11-21T14:45:31;9.40;99.90
16283;DHT22;8249;48.708;9.030;2023-11-21T14:47:58;9.40;99.90
16283;DHT22;8249;48.708;9.030;2023-11-21T14:50:32;9.30;99.90
16283;DHT22;8249;48.708;9.030;2023-11-21T14:53:16;9.30;99.90
16283;DHT22;8249;48.708;9.030;2023-11-21T14:55:48;9.20;99.90
16283;DHT22;8249;48.708;9.030;2023-11-21T14:58:24;9.20;99.90
16283;DHT22;8249;48.708;9.030;2023-11-21T15:00:56;9.10;99.90
16283;DHT22;8249;48.708;9.030;2023-11-21T15:03:25;9.10;99.90
16283;DHT22;8249;48.708;9.030;2023-11-21T15:06:09;9.10;99.90
16283;DHT22;8249;48.708;9.030;2023-11-21T15:08:50;9.00;99.90
16283;DHT22;8249;48.708;9.030;2023-11-21T15:11:34;8.90;99.90
16283;DHT22;8249;48.708;9.030;2023-11-21T15:14:04;8.80;99.90
16283;DHT22;8249;48.708;9.030;2023-11-21T15:16:34;8.80;99.90
16283;DHT22;8249;48.708;9.030;2023-11-21T15:19:04;8.70;99.90
16283;DHT22;8249;48.708;9.030;2023-11-21T15:21:32;8.70;99.90
16283;DHT22;8249;48.708;9.030;2023-11-21T15:23:59;8.70;99.90
16283;DHT22;8249;48.708;9.030;2023-11-21T15:26:26;8.70;99.90
16283;DHT22;8249;48.708;9.030;2023-11-21T15:28:54;8.70;99.90
16283;DHT22;8249;48.708;9.030;2023-11-21T15:31:23;8.60;99.90
16283;DHT22;8249;48.708;9.030;2023-11-21T15:33:50;8.60;99.90
16283;DHT22;8249;48.708;9.030;2023-11-21T15:36:18;8.60;99.90
16283;DHT22;8249;48.708;9.030;2023-11-21T15:38:45;8.60;99.90
16283;DHT22;8249;48.708;9.030;2023-11-21T15:41:12;8.60;99.90
16283;DHT22;8249;48.708;9.030;2023-11-21T15:43:39;8.60;99.90
16283;DHT22;8249;48.708;9.030;2023-11-21T15:46:06;8.60;99.90
16283;DHT22;8249;48.708;9.030;2023-11-21T15:48:35;8.60;99.90
16283;DHT22;8249;48.708;9.030;2023-11-21T15:51:04;8.50;99.90
16283;DHT22;8249;48.708;9.030;2023-11-21T15:53:34;8.50;99.90
16283;DHT22;8249;48.708;9.030;2023-11-21T15:56:01;8.50;99.90
16283;DHT22;8249;48.708;9.030;2023-11-21T15:58:30;8.50;99.90
16283;DHT22;8249;48.708;9.030;2023-11-21T16:00:57;8.50;99.90
16283;DHT22;8249;48.708;9.030;2023-11-21T16:03:23;8.40;99.90
16283;DHT22;8249;48.708;9.030;2023-11-21T16:05:52;8.40;99.90
16283;DHT22;8249;48.708;9.030;2023-11-21T16:08:19;8.40;99.90